Time;durP1;ratioP1;P1;durP2;ratioP2;P2;SDS_P1;SDS_P2;PMS_P1;PMS_P2;Temp;Humidity;BMP_temperature;BMP_pressure;BME280_temperature;BME280_humidity;BME280_pressure;Samples;Min_cycle;Max_cycle;Signal;HPM_P1;HPM_P2
2022/12/07 00:01:59;;;;;;;10.48;8.70;;;6.10;61.40;;;;;;4992788;28;20049;-75
2022/12/07 00:04:44;;;;;;;10.95;8.45;;;6.10;61.40;;;;;;5007926;28;20053;-75
2022/12/07 00:07:28;;;;;;;10.25;9.20;;;6.00;61.30;;;;;;5012182;28;20040;-75
2022/12/07 00:10:13;;;;;;;10.48;8.82;;;6.00;61.30;;;;;;5027526;28;20417;-75
2022/12/07 00:12:57;;;;;;;11.43;9.10;;;5.90;61.20;;;;;;5015736;28;20092;-75
2022/12/07 00:15:42;;;;;;;9.98;8.98;;;5.80;61.00;;;;;;5007630;28;20048;-75
2022/12/07 00:18:27;;;;;;;10.43;9.32;;;5.80;61.10;;;;;;5007531;28;20048;-75
2022/12/07 00:21:17;;;;;;;10.45;9.18;;;5.80;61.10;;;;;;5020799;28;20600;-75
2022/12/07 00:24:03;;;;;;;10.15;9.02;;;5.80;61.20;;;;;;5026919;28;20080;-75
2022/12/07 00:26:48;;;;;;;9.52;8.15;;;5.70;61.00;;;;;;5026853;28;20037;-75
2022/12/07 00:29:32;;;;;;;11.80;8.52;;;5.60;60.90;;;;;;5017948;28;20041;-75
2022/12/07 00:32:17;;;;;;;9.52;8.55;;;5.60;61.00;;;;;;5026887;28;20232;-75
2022/12/07 00:35:01;;;;;;;10.48;8.68;;;5.50;60.90;;;;;;5027360;28;20068;-75
2022/12/07 00:37:46;;;;;;;10.00;8.82;;;5.50;61.00;;;;;;5025319;28;20436;-75
2022/12/07 00:40:30;;;;;;;9.75;8.55;;;5.40;60.80;;;;;;5015544;28;20041;-75
2022/12/07 00:43:15;;;;;;;9.77;8.85;;;5.40;60.90;;;;;;5027126;28;20500;-75
2022/12/07 00:46:00;;;;;;;13.27;9.43;;;5.40;61.00;;;;;;5022696;28;20053;-75
2022/12/07 00:48:45;;;;;;;11.98;8.82;;;5.40;61.00;;;;;;5006965;28;20080;-75
2022/12/07 00:51:29;;;;;;;11.90;8.93;;;5.30;60.90;;;;;;5020532;28;20061;-75
2022/12/07 00:54:14;;;;;;;10.85;9.75;;;5.30;61.00;;;;;;5016895;28;20131;-75
2022/12/07 00:56:58;;;;;;;9.63;8.63;;;5.30;61.00;;;;;;5007088;28;20105;-75
2022/12/07 00:59:43;;;;;;;11.82;9.10;;;5.30;61.00;;;;;;5009015;28;20069;-74
2022/12/07 01:02:30;;;;;;;11.00;8.75;;;5.30;61.00;;;;;;4991720;28;20116;-75
2022/12/07 01:05:14;;;;;;;11.63;9.18;;;5.30;61.00;;;;;;5004321;28;20417;-75
2022/12/07 01:07:59;;;;;;;9.07;8.05;;;5.30;61.10;;;;;;5025910;28;20052;-75
2022/12/07 01:10:46;;;;;;;11.27;8.98;;;5.20;60.90;;;;;;5025070;28;20095;-75
2022/12/07 01:13:31;;;;;;;11.15;9.32;;;5.20;61.00;;;;;;5026207;28;20909;-75
2022/12/07 01:16:17;;;;;;;11.38;8.30;;;5.20;61.00;;;;;;5006823;28;20100;-75
2022/12/07 01:19:04;;;;;;;12.10;8.30;;;5.20;61.00;;;;;;4992332;28;20221;-76
2022/12/07 01:21:48;;;;;;;9.73;8.25;;;5.20;61.10;;;;;;5024967;28;20045;-76
2022/12/07 01:24:33;;;;;;;9.43;8.18;;;5.20;61.10;;;;;;5009477;28;20096;-74
2022/12/07 01:27:18;;;;;;;10.82;8.52;;;5.10;61.00;;;;;;4992381;28;20095;-74
2022/12/07 01:30:04;;;;;;;10.27;8.73;;;5.10;61.00;;;;;;5019356;28;20044;-75
2022/12/07 01:32:49;;;;;;;11.35;9.52;;;5.00;60.90;;;;;;5010203;28;20084;-75
2022/12/07 01:35:34;;;;;;;10.57;9.20;;;5.00;60.90;;;;;;5006692;28;20052;-74
2022/12/07 01:38:18;;;;;;;11.52;8.48;;;5.00;61.00;;;;;;5008731;28;20083;-75
2022/12/07 01:41:03;;;;;;;10.55;8.57;;;5.00;61.00;;;;;;5026731;28;20068;-74
2022/12/07 01:44:06;;;;;;;12.05;9.35;;;4.90;60.90;;;;;;5025422;28;20151;-74
2022/12/07 01:46:54;;;;;;;11.95;8.98;;;4.90;61.00;;;;;;5006427;28;20053;-75
2022/12/07 01:49:45;;;;;;;11.35;8.98;;;4.90;61.00;;;;;;5003553;28;20590;-75
2022/12/07 01:52:33;;;;;;;12.20;9.35;;;4.90;61.10;;;;;;5024322;28;20542;-75
2022/12/07 01:55:18;;;;;;;10.65;8.57;;;4.90;61.10;;;;;;5011165;28;20041;-75
2022/12/07 01:58:03;;;;;;;10.40;8.65;;;4.90;61.10;;;;;;4991668;28;20044;-75
2022/12/07 02:00:48;;;;;;;10.75;9.25;;;4.90;61.20;;;;;;4984560;28;20092;-75
2022/12/07 02:03:38;;;;;;;13.57;8.90;;;4.80;61.00;;;;;;5005531;28;20053;-74
2022/12/07 02:06:25;;;;;;;11.52;8.93;;;4.80;61.00;;;;;;5004598;28;20429;-75
2022/12/07 02:09:10;;;;;;;10.95;8.80;;;4.80;61.00;;;;;;5020007;28;20099;-74
2022/12/07 02:11:55;;;;;;;10.77;8.88;;;4.80;61.10;;;;;;5023444;28;20567;-75
2022/12/07 02:14:39;;;;;;;10.50;8.23;;;4.80;61.10;;;;;;5005531;28;20044;-76
2022/12/07 02:17:51;;;;;;;10.95;8.52;;;4.70;61.00;;;;;;5015185;28;20147;-76
2022/12/07 02:20:44;;;;;;;12.23;8.65;;;4.70;61.00;;;;;;5008075;28;20092;-74
2022/12/07 02:23:39;;;;;;;9.68;8.35;;;4.70;61.00;;;;;;5024803;28;20109;-74
2022/12/07 02:27:15;;;;;;;11.60;8.45;;;4.70;61.10;;;;;;5024380;28;20045;-75
2022/12/07 02:30:20;;;;;;;11.23;8.43;;;4.70;61.10;;;;;;4994883;28;20615;-75
2022/12/07 02:33:16;;;;;;;11.93;8.45;;;4.70;61.10;;;;;;5025721;28;20163;-75
2022/12/07 02:36:14;;;;;;;13.43;8.88;;;4.60;61.00;;;;;;5023678;28;20630;-76
2022/12/07 02:39:22;;;;;;;10.10;7.82;;;4.60;61.00;;;;;;5027376;28;20191;-76
2022/12/07 02:42:20;;;;;;;11.85;8.15;;;4.60;61.10;;;;;;5041856;28;20031;-76
2022/12/07 02:45:06;;;;;;;10.80;8.23;;;4.60;61.10;;;;;;5011340;28;20163;-76
2022/12/07 02:47:55;;;;;;;14.35;9.27;;;4.60;61.10;;;;;;5014815;28;20073;-76
2022/12/07 02:50:45;;;;;;;10.73;7.70;;;4.60;61.10;;;;;;5035164;28;20497;-76
2022/12/07 02:53:35;;;;;;;8.43;7.63;;;4.60;61.20;;;;;;5018157;28;20052;-75
2022/12/07 02:56:44;;;;;;;11.27;7.90;;;4.60;61.20;;;;;;5055827;28;20075;-75
2022/12/07 03:00:00;;;;;;;9.93;8.85;;;4.60;61.30;;;;;;5058318;28;20059;-76
2022/12/07 03:03:00;;;;;;;10.07;8.48;;;4.50;61.10;;;;;;5020154;28;20126;-75
2022/12/07 03:06:09;;;;;;;11.60;8.43;;;4.50;61.10;;;;;;5043599;28;20040;-76
2022/12/07 03:09:16;;;;;;;13.80;9.70;;;4.50;61.10;;;;;;5042399;28;20033;-76
2022/12/07 03:12:12;;;;;;;15.50;9.63;;;4.50;61.10;;;;;;5033534;28;20035;-76
2022/12/07 03:15:06;;;;;;;10.43;8.68;;;4.50;61.20;;;;;;5030815;28;20596;-75
2022/12/07 03:17:51;;;;;;;12.23;9.68;;;4.50;61.20;;;;;;5029154;28;20067;-75
2022/12/07 03:20:38;;;;;;;14.35;10.05;;;4.50;61.20;;;;;;5023998;28;20409;-75
2022/12/07 03:23:25;;;;;;;12.07;10.63;;;4.50;61.20;;;;;;5004769;28;20091;-75
2022/12/07 03:26:13;;;;;;;11.85;9.40;;;4.50;61.30;;;;;;4994003;28;20068;-75
2022/12/07 03:29:04;;;;;;;11.02;9.52;;;4.50;61.30;;;;;;5019210;28;20052;-75
2022/12/07 03:32:14;;;;;;;11.93;9.82;;;4.50;61.40;;;;;;5028352;28;20056;-75
2022/12/07 03:35:03;;;;;;;12.60;9.15;;;4.50;61.40;;;;;;5012686;28;20063;-75
2022/12/07 03:38:11;;;;;;;13.75;10.50;;;4.50;61.90;;;;;;5027871;28;20052;-75
2022/12/07 03:41:07;;;;;;;11.55;9.68;;;4.50;61.40;;;;;;4992515;28;20504;-75
2022/12/07 03:43:54;;;;;;;10.90;9.23;;;4.50;61.40;;;;;;4993648;28;20131;-75
2022/12/07 03:47:30;;;;;;;15.98;9.43;;;4.50;61.40;;;;;;5023351;28;20053;-76
2022/12/07 03:50:29;;;;;;;11.95;8.73;;;4.50;61.50;;;;;;4930024;28;20087;-75
2022/12/07 03:53:22;;;;;;;11.52;9.45;;;4.40;61.30;;;;;;5004676;28;20123;-76
2022/12/07 03:56:08;;;;;;;10.25;9.05;;;4.40;61.30;;;;;;5008369;28;20040;-75
2022/12/07 03:58:54;;;;;;;11.05;9.15;;;4.40;61.40;;;;;;5009757;28;20056;-75
2022/12/07 04:01:38;;;;;;;12.48;8.70;;;4.30;61.20;;;;;;5007735;28;20041;-75
2022/12/07 04:04:24;;;;;;;9.50;8.48;;;4.30;61.30;;;;;;5008082;28;20554;-75
2022/12/07 04:07:09;;;;;;;12.25;8.93;;;4.30;61.40;;;;;;5007037;28;20049;-75
2022/12/07 04:09:54;;;;;;;10.48;8.80;;;4.30;61.40;;;;;;5014636;28;20084;-74
2022/12/07 04:12:39;;;;;;;11.52;9.23;;;4.20;61.30;;;;;;5008117;28;20670;-75
2022/12/07 04:15:23;;;;;;;11.75;8.57;;;4.20;61.20;;;;;;5007310;28;20125;-75
2022/12/07 04:18:08;;;;;;;12.45;9.35;;;4.20;61.30;;;;;;5007844;28;20089;-75
2022/12/07 04:20:52;;;;;;;12.18;9.50;;;4.20;61.40;;;;;;5006099;28;20073;-74
2022/12/07 04:23:37;;;;;;;9.27;8.32;;;4.10;61.20;;;;;;4989465;28;20072;-75
2022/12/07 04:26:21;;;;;;;10.90;7.93;;;4.10;61.30;;;;;;5007713;28;20144;-75
2022/12/07 04:29:06;;;;;;;12.35;9.88;;;4.00;61.10;;;;;;4994206;28;20041;-75
2022/12/07 04:31:51;;;;;;;10.90;8.20;;;3.90;61.20;;;;;;5011298;28;20040;-75
2022/12/07 04:34:35;;;;;;;13.80;8.25;;;3.90;61.10;;;;;;5011056;28;20189;-75
2022/12/07 04:37:20;;;;;;;10.27;8.23;;;3.90;61.10;;;;;;5010129;28;20413;-75
2022/12/07 04:40:07;;;;;;;11.98;9.15;;;3.90;61.20;;;;;;5013348;28;20060;-75
2022/12/07 04:42:51;;;;;;;10.82;8.55;;;3.80;61.00;;;;;;5031367;28;20032;-75
2022/12/07 04:45:36;;;;;;;9.02;7.90;;;3.80;61.10;;;;;;5028292;28;20048;-75
2022/12/07 04:48:21;;;;;;;13.23;8.23;;;3.80;61.20;;;;;;4996132;28;20076;-74
2022/12/07 04:51:05;;;;;;;8.63;7.72;;;3.80;61.10;;;;;;5010335;28;20064;-75
2022/12/07 04:53:50;;;;;;;8.60;7.70;;;3.70;61.00;;;;;;5010413;28;20164;-75
2022/12/07 04:56:35;;;;;;;15.13;9.10;;;3.70;61.20;;;;;;5007440;28;20804;-75
2022/12/07 04:59:19;;;;;;;11.38;8.43;;;3.70;61.00;;;;;;5016901;28;20060;-75
2022/12/07 05:02:04;;;;;;;12.75;8.85;;;3.70;61.10;;;;;;5010224;28;20072;-75
2022/12/07 05:04:48;;;;;;;10.55;8.32;;;3.70;61.10;;;;;;4995422;28;20045;-75
2022/12/07 05:07:33;;;;;;;10.27;7.18;;;3.60;60.90;;;;;;4994600;28;20180;-76
2022/12/07 05:10:17;;;;;;;11.70;8.27;;;3.60;61.00;;;;;;5010827;28;20044;-75
2022/12/07 05:13:02;;;;;;;13.93;8.70;;;3.60;61.00;;;;;;5010712;28;20060;-76
2022/12/07 05:15:48;;;;;;;9.55;8.00;;;3.60;61.00;;;;;;5010132;28;20105;-75
2022/12/07 05:18:32;;;;;;;12.50;8.90;;;3.60;61.00;;;;;;5027462;28;20153;-75
2022/12/07 05:21:17;;;;;;;9.07;7.43;;;3.60;61.00;;;;;;5008972;28;20080;-75
2022/12/07 05:24:02;;;;;;;11.68;8.00;;;3.60;61.00;;;;;;5009784;28;20037;-75
2022/12/07 05:26:46;;;;;;;8.93;7.18;;;3.60;61.00;;;;;;5006284;28;20441;-75
2022/12/07 05:29:31;;;;;;;13.60;7.13;;;3.60;61.10;;;;;;5010079;28;20045;-77
2022/12/07 05:32:16;;;;;;;12.27;7.55;;;3.60;61.10;;;;;;5026584;28;20084;-74
2022/12/07 05:35:00;;;;;;;8.38;7.07;;;3.50;61.00;;;;;;5008290;28;20096;-75
2022/12/07 05:37:45;;;;;;;11.23;8.02;;;3.60;61.20;;;;;;5008726;28;20052;-75
2022/12/07 05:40:30;;;;;;;9.15;7.45;;;3.60;61.10;;;;;;5028222;28;20048;-76
2022/12/07 05:43:14;;;;;;;8.98;6.75;;;3.60;61.20;;;;;;5007505;28;20044;-76
2022/12/07 05:45:59;;;;;;;9.25;7.13;;;3.60;61.20;;;;;;5009472;28;20125;-75
2022/12/07 05:48:44;;;;;;;10.00;7.25;;;3.60;61.20;;;;;;5006679;28;20366;-75
2022/12/07 05:51:28;;;;;;;10.88;7.35;;;3.50;61.00;;;;;;5005184;28;20096;-75
2022/12/07 05:54:13;;;;;;;11.02;7.13;;;3.50;61.00;;;;;;5005562;28;20555;-75
2022/12/07 05:56:58;;;;;;;11.02;7.35;;;3.50;61.00;;;;;;5005226;28;20433;-74
2022/12/07 05:59:42;;;;;;;9.25;7.05;;;3.50;61.10;;;;;;5023031;28;20129;-75
2022/12/07 06:02:27;;;;;;;11.95;7.60;;;3.50;61.10;;;;;;5012133;28;20064;-76
2022/12/07 06:05:12;;;;;;;10.43;7.10;;;3.40;61.00;;;;;;5025576;28;20149;-75
2022/12/07 06:07:56;;;;;;;8.68;6.63;;;3.40;61.00;;;;;;5020878;28;20525;-74
2022/12/07 06:10:41;;;;;;;12.23;7.43;;;3.40;61.00;;;;;;5025322;28;20044;-75
2022/12/07 06:13:26;;;;;;;11.65;7.97;;;3.30;60.90;;;;;;5024757;28;20889;-75
2022/12/07 06:16:11;;;;;;;15.35;7.78;;;3.30;61.00;;;;;;5006151;28;20524;-84
2022/12/07 06:18:56;;;;;;;15.90;8.68;;;3.30;61.60;;;;;;5008148;28;20230;-82
2022/12/07 06:21:40;;;;;;;13.25;8.32;;;3.30;61.30;;;;;;5021541;28;20045;-82
2022/12/07 06:24:25;;;;;;;13.20;8.90;;;3.30;61.80;;;;;;5004429;28;20089;-80
2022/12/07 06:27:10;;;;;;;11.30;8.10;;;3.40;61.40;;;;;;5004736;28;20061;-80
2022/12/07 06:29:54;;;;;;;12.18;8.02;;;3.40;61.40;;;;;;5001520;28;20083;-79
2022/12/07 06:32:39;;;;;;;11.10;7.90;;;3.40;61.40;;;;;;5005741;28;20156;-79
2022/12/07 06:35:23;;;;;;;12.13;8.35;;;3.40;61.40;;;;;;4990751;28;20472;-79
2022/12/07 06:38:08;;;;;;;15.20;8.68;;;3.40;61.40;;;;;;5022549;28;20060;-82
2022/12/07 06:40:53;;;;;;;9.80;8.57;;;3.40;61.50;;;;;;5024014;28;20099;-79
2022/12/07 06:43:38;;;;;;;13.43;8.82;;;3.40;61.50;;;;;;5008438;28;20629;-80
2022/12/07 06:46:23;;;;;;;10.93;8.93;;;3.40;61.50;;;;;;4998932;28;20142;-81
2022/12/07 06:49:08;;;;;;;14.73;8.95;;;3.40;61.60;;;;;;5012160;28;20449;-81
2022/12/07 06:51:52;;;;;;;14.68;9.95;;;3.30;61.40;;;;;;5002988;28;20171;-81
2022/12/07 06:54:37;;;;;;;13.55;9.63;;;3.30;61.50;;;;;;5016286;28;20044;-81
2022/12/07 06:57:22;;;;;;;12.02;9.68;;;3.30;61.50;;;;;;5004885;28;20052;-81
2022/12/07 07:00:07;;;;;;;12.75;9.43;;;3.30;61.60;;;;;;4998446;28;20115;-82
2022/12/07 07:02:52;;;;;;;11.18;9.48;;;3.20;61.50;;;;;;5004343;28;20120;-81
2022/12/07 07:05:37;;;;;;;14.13;10.18;;;3.20;61.60;;;;;;5004581;28;20084;-81
2022/12/07 07:08:22;;;;;;;14.18;9.13;;;3.20;61.60;;;;;;5010810;28;20115;-82
2022/12/07 07:11:08;;;;;;;16.45;9.93;;;3.20;62.10;;;;;;5028392;28;20042;-76
2022/12/07 07:13:56;;;;;;;22.52;11.77;;;3.30;62.20;;;;;;5008713;28;20370;-80
2022/12/07 07:16:40;;;;;;;13.20;9.75;;;3.40;62.60;;;;;;5008703;28;20114;-79
2022/12/07 07:19:25;;;;;;;12.13;9.27;;;3.60;62.60;;;;;;5018364;28;20051;-78
2022/12/07 07:22:10;;;;;;;11.07;9.77;;;3.70;63.00;;;;;;5007943;28;20095;-78
2022/12/07 07:24:55;;;;;;;10.63;9.52;;;3.70;62.40;;;;;;5018839;28;20073;-79
2022/12/07 07:27:39;;;;;;;16.55;9.90;;;3.70;62.40;;;;;;4990272;28;20049;-78
2022/12/07 07:30:25;;;;;;;11.60;9.57;;;3.70;62.40;;;;;;5006019;28;20064;-78
2022/12/07 07:33:10;;;;;;;10.55;8.68;;;3.60;62.40;;;;;;5024046;28;20040;-78
2022/12/07 07:35:55;;;;;;;11.23;8.75;;;3.50;62.30;;;;;;5006351;28;20068;-75
2022/12/07 07:38:40;;;;;;;13.60;9.52;;;3.50;62.50;;;;;;5006043;28;20052;-75
2022/12/07 07:41:24;;;;;;;10.23;9.02;;;3.40;62.30;;;;;;5003071;28;20100;-76
2022/12/07 07:44:09;;;;;;;12.20;9.10;;;3.30;62.20;;;;;;5003267;28;20044;-74
2022/12/07 07:46:53;;;;;;;10.15;8.93;;;3.30;62.30;;;;;;4988469;28;20551;-76
2022/12/07 07:49:38;;;;;;;11.43;9.43;;;3.30;62.30;;;;;;5007205;28;20623;-75
2022/12/07 07:52:23;;;;;;;10.18;9.13;;;3.20;62.20;;;;;;5007589;28;20090;-78
2022/12/07 07:55:08;;;;;;;11.13;8.48;;;3.20;62.20;;;;;;5008139;28;20124;-76
2022/12/07 07:57:54;;;;;;;11.32;9.30;;;3.10;62.10;;;;;;5004380;28;20188;-78
2022/12/07 08:00:38;;;;;;;11.73;9.05;;;3.00;62.40;;;;;;5022304;28;20280;-75
2022/12/07 08:03:23;;;;;;;12.43;8.52;;;3.00;61.90;;;;;;5021978;28;20551;-75
2022/12/07 08:06:07;;;;;;;12.70;9.43;;;2.90;61.80;;;;;;5008776;28;20552;-76
2022/12/07 08:08:52;;;;;;;10.98;8.90;;;2.90;61.80;;;;;;5019732;28;20071;-76
2022/12/07 08:11:37;;;;;;;13.77;9.15;;;2.90;61.80;;;;;;5026806;28;20040;-77
2022/12/07 08:14:21;;;;;;;11.15;8.63;;;2.80;61.70;;;;;;5009563;28;20152;-77
2022/12/07 08:17:06;;;;;;;11.35;8.48;;;2.80;61.70;;;;;;5004301;28;20133;-76
2022/12/07 08:19:51;;;;;;;11.85;8.65;;;2.70;61.50;;;;;;5024572;28;20669;-76
2022/12/07 08:22:35;;;;;;;12.88;8.18;;;2.70;61.50;;;;;;5024663;28;20203;-76
2022/12/07 08:25:20;;;;;;;11.82;9.35;;;2.70;61.50;;;;;;5025972;28;20103;-76
2022/12/07 08:28:05;;;;;;;11.52;9.15;;;2.60;61.40;;;;;;5009926;28;20102;-76
2022/12/07 08:30:50;;;;;;;11.50;8.65;;;2.60;61.40;;;;;;5026551;28;20526;-77
2022/12/07 08:33:35;;;;;;;11.85;8.52;;;2.60;61.40;;;;;;5007678;28;20080;-77
2022/12/07 08:36:21;;;;;;;12.00;8.85;;;2.60;61.30;;;;;;5005555;28;20049;-77
2022/12/07 08:39:05;;;;;;;12.45;8.98;;;2.50;61.20;;;;;;5014133;28;20608;-76
2022/12/07 08:41:50;;;;;;;10.80;9.38;;;2.50;61.10;;;;;;5006979;28;20620;-76
2022/12/07 08:44:35;;;;;;;13.73;9.05;;;2.60;61.30;;;;;;5007129;28;20130;-75
2022/12/07 08:47:19;;;;;;;14.50;9.93;;;2.50;61.10;;;;;;5019737;28;20061;-77
2022/12/07 08:50:07;;;;;;;12.60;8.10;;;2.60;61.20;;;;;;5024353;28;20095;-79
2022/12/07 08:52:55;;;;;;;11.15;8.82;;;2.50;61.00;;;;;;5021119;28;20040;-77
2022/12/07 08:55:39;;;;;;;11.68;9.38;;;2.50;61.00;;;;;;5009121;28;20145;-75
2022/12/07 08:58:24;;;;;;;9.65;7.88;;;2.50;60.90;;;;;;5012264;28;20404;-74
2022/12/07 09:01:09;;;;;;;13.55;8.40;;;2.50;60.90;;;;;;5022700;28;20205;-75
2022/12/07 09:03:53;;;;;;;12.02;9.00;;;2.50;60.80;;;;;;4992221;28;20412;-75
2022/12/07 09:06:38;;;;;;;9.10;7.65;;;2.50;60.80;;;;;;5005859;28;20049;-81
2022/12/07 09:09:22;;;;;;;9.38;8.40;;;2.50;60.80;;;;;;5019703;28;20595;-79
2022/12/07 09:12:07;;;;;;;12.88;9.10;;;2.50;60.70;;;;;;5005869;28;20085;-79
2022/12/07 09:14:52;;;;;;;12.35;9.95;;;2.50;60.70;;;;;;5006194;28;20041;-81
2022/12/07 09:17:37;;;;;;;11.75;8.73;;;2.50;60.70;;;;;;5007220;28;20156;-80
2022/12/07 09:20:22;;;;;;;13.32;8.82;;;2.50;60.70;;;;;;5005919;28;20045;-80
2022/12/07 09:23:07;;;;;;;13.88;9.98;;;2.50;60.60;;;;;;5018655;28;20096;-81
2022/12/07 09:25:51;;;;;;;13.98;9.60;;;2.50;60.60;;;;;;5025544;28;20099;-77
2022/12/07 09:28:36;;;;;;;11.25;10.15;;;2.50;60.60;;;;;;4998092;28;20448;-82
2022/12/07 09:31:20;;;;;;;14.00;10.88;;;2.50;60.60;;;;;;5013578;28;20141;-76
2022/12/07 09:34:05;;;;;;;14.25;10.27;;;2.60;60.70;;;;;;5005484;28;20065;-76
2022/12/07 09:36:50;;;;;;;13.60;10.05;;;2.50;60.50;;;;;;5024001;28;20122;-76
2022/12/07 09:39:38;;;;;;;13.48;10.88;;;2.60;60.60;;;;;;5029680;28;20056;-74
2022/12/07 09:42:44;;;;;;;17.02;9.90;;;2.60;61.10;;;;;;5019616;28;20103;-82
2022/12/07 09:45:35;;;;;;;13.05;9.50;;;2.60;60.60;;;;;;5015638;28;20121;-79
2022/12/07 09:48:33;;;;;;;12.52;9.18;;;2.60;60.50;;;;;;5010681;28;20116;-75
2022/12/07 09:51:20;;;;;;;13.82;9.18;;;2.70;60.60;;;;;;5024044;28;20507;-82
2022/12/07 09:54:04;;;;;;;15.20;9.68;;;2.70;60.60;;;;;;5025186;28;20087;-77
2022/12/07 09:56:49;;;;;;;11.90;9.65;;;2.70;60.50;;;;;;5021581;28;20099;-76
2022/12/07 09:59:34;;;;;;;12.95;9.82;;;2.70;60.50;;;;;;5019127;28;20559;-77
2022/12/07 10:02:39;;;;;;;12.52;9.80;;;2.70;60.50;;;;;;5010366;28;20044;-80
2022/12/07 10:05:38;;;;;;;14.27;10.30;;;2.80;60.60;;;;;;5014141;28;20539;-78
2022/12/07 10:08:24;;;;;;;11.35;9.82;;;2.80;60.50;;;;;;5022506;28;20060;-77
2022/12/07 10:11:10;;;;;;;13.27;9.95;;;2.80;60.50;;;;;;5024766;28;20524;-77
2022/12/07 10:13:55;;;;;;;11.68;9.85;;;2.80;61.00;;;;;;5025465;28;20562;-77
2022/12/07 10:16:41;;;;;;;13.90;10.13;;;2.80;60.50;;;;;;5019001;28;20127;-77
2022/12/07 10:19:31;;;;;;;12.82;10.00;;;2.90;60.70;;;;;;5016875;28;20463;-76
2022/12/07 10:22:17;;;;;;;14.02;10.52;;;2.80;60.50;;;;;;5023826;28;20052;-76
2022/12/07 10:25:09;;;;;;;16.55;11.38;;;2.90;60.70;;;;;;5023845;28;20550;-76
2022/12/07 10:28:07;;;;;;;16.33;11.02;;;2.90;60.60;;;;;;5024707;28;20566;-77
2022/12/07 10:31:01;;;;;;;15.18;11.02;;;3.00;60.90;;;;;;5024329;28;20044;-77
2022/12/07 10:33:58;;;;;;;17.77;12.70;;;3.00;60.70;;;;;;5025084;28;20432;-77
2022/12/07 10:36:42;;;;;;;20.02;12.82;;;3.00;60.70;;;;;;5018489;28;20056;-77
2022/12/07 10:39:26;;;;;;;15.75;11.73;;;3.10;60.80;;;;;;5024340;28;20153;-77
2022/12/07 10:42:29;;;;;;;17.15;11.55;;;3.10;60.80;;;;;;5004937;28;20049;-76
2022/12/07 10:45:16;;;;;;;16.95;12.38;;;3.20;61.00;;;;;;5007330;28;20103;-77
2022/12/07 10:48:13;;;;;;;17.75;13.43;;;3.20;60.90;;;;;;5005074;28;20112;-76
2022/12/07 10:51:25;;;;;;;19.00;12.90;;;3.30;61.00;;;;;;5013794;28;20436;-78
2022/12/07 10:54:35;;;;;;;17.15;13.20;;;3.40;61.00;;;;;;5004870;28;20088;-76
2022/12/07 10:57:25;;;;;;;17.50;13.45;;;3.60;61.10;;;;;;5004651;28;20550;-76
2022/12/07 11:00:22;;;;;;;17.08;13.35;;;3.70;61.10;;;;;;5013586;28;20131;-77
2022/12/07 11:03:27;;;;;;;19.77;12.82;;;3.90;61.20;;;;;;5023570;28;20044;-77
2022/12/07 11:06:29;;;;;;;17.90;13.25;;;4.10;61.30;;;;;;5023810;28;20088;-77
2022/12/07 11:09:36;;;;;;;17.38;12.15;;;4.20;61.20;;;;;;5028712;28;20177;-77
2022/12/07 11:12:29;;;;;;;16.15;12.68;;;4.40;61.40;;;;;;5004336;28;20069;-76
2022/12/07 11:15:31;;;;;;;17.95;13.90;;;4.50;61.40;;;;;;5007675;28;20040;-77
2022/12/07 11:18:25;;;;;;;16.25;14.10;;;4.70;61.60;;;;;;5006316;28;20049;-78
2022/12/07 11:21:28;;;;;;;20.58;13.80;;;4.80;61.50;;;;;;5022616;28;20079;-77
2022/12/07 11:24:17;;;;;;;18.83;13.98;;;4.90;61.50;;;;;;5004234;28;20447;-77
2022/12/07 11:27:16;;;;;;;17.00;14.13;;;5.10;61.70;;;;;;5021860;28;21390;-76
2022/12/07 11:30:07;;;;;;;22.85;14.85;;;5.20;61.70;;;;;;4996282;28;20429;-75
2022/12/07 11:33:19;;;;;;;13.82;11.38;;;5.40;61.80;;;;;;5023010;28;20060;-76
2022/12/07 11:36:22;;;;;;;16.38;11.77;;;5.50;61.80;;;;;;5021470;28;20056;-77
2022/12/07 11:39:18;;;;;;;17.40;11.68;;;5.70;62.00;;;;;;5006294;28;20107;-76
2022/12/07 11:42:31;;;;;;;12.88;9.18;;;5.80;62.00;;;;;;5011021;28;20120;-76
2022/12/07 11:45:21;;;;;;;12.00;8.77;;;5.90;62.00;;;;;;5008329;28;20041;-74
2022/12/07 11:48:35;;;;;;;12.75;9.23;;;6.00;62.00;;;;;;4993209;28;20140;-75
2022/12/07 11:51:22;;;;;;;11.00;7.70;;;6.10;62.10;;;;;;5007127;28;20040;-77
2022/12/07 11:54:17;;;;;;;9.10;7.25;;;6.10;62.00;;;;;;5014969;28;20421;-76
2022/12/07 11:57:30;;;;;;;11.23;7.65;;;6.30;62.40;;;;;;5009156;28;20044;-79
2022/12/07 12:00:16;;;;;;;15.05;8.88;;;6.50;62.70;;;;;;5024566;28;20504;-78
2022/12/07 12:03:17;;;;;;;11.77;8.55;;;6.70;62.80;;;;;;5015940;28;20129;-79
2022/12/07 12:06:02;;;;;;;11.05;8.05;;;6.90;63.00;;;;;;5007046;28;20048;-78
2022/12/07 12:08:51;;;;;;;14.23;8.40;;;7.00;62.90;;;;;;5003681;28;20041;-77
2022/12/07 12:12:14;;;;;;;11.65;7.70;;;7.10;63.00;;;;;;5018415;28;20084;-78
2022/12/07 12:15:23;;;;;;;11.35;7.05;;;7.20;63.10;;;;;;4982592;28;20312;-79
2022/12/07 12:18:32;;;;;;;9.40;6.65;;;7.30;63.20;;;;;;5009735;28;20099;-76
2022/12/07 12:21:22;;;;;;;8.35;6.50;;;7.30;63.00;;;;;;4991312;28;20045;-75
2022/12/07 12:24:17;;;;;;;12.13;7.40;;;7.40;63.20;;;;;;5007679;28;20131;-76
2022/12/07 12:27:06;;;;;;;11.07;7.65;;;7.40;63.10;;;;;;5007069;28;20110;-75
2022/12/07 12:29:55;;;;;;;10.30;7.40;;;7.40;63.10;;;;;;5021200;28;20036;-79
2022/12/07 12:32:42;;;;;;;8.27;6.55;;;7.50;63.20;;;;;;5008256;28;20053;-79
2022/12/07 12:35:35;;;;;;;11.60;6.72;;;7.50;63.10;;;;;;5006210;28;20041;-79
2022/12/07 12:38:48;;;;;;;13.50;6.45;;;7.50;63.10;;;;;;5010409;28;20153;-78
2022/12/07 12:42:19;;;;;;;;;;;7.50;63.00;;;;;;5007592;28;20041;-77
2022/12/07 12:45:18;;;;;;;6.38;4.90;;;7.50;63.00;;;;;;5006864;28;19919;-77
2022/12/07 12:48:27;;;;;;;11.18;4.38;;;7.50;62.90;;;;;;4993254;28;20069;-75
2022/12/07 12:51:39;;;;;;;9.32;4.75;;;7.60;63.00;;;;;;5014190;28;20104;-75
2022/12/07 12:54:32;;;;;;;8.43;4.57;;;7.60;63.00;;;;;;5006900;28;20084;-75
2022/12/07 12:57:36;;;;;;;7.43;4.32;;;7.60;63.00;;;;;;4991890;28;20104;-75
2022/12/07 13:00:22;;;;;;;9.18;4.10;;;7.60;62.80;;;;;;5023897;28;20251;-75
2022/12/07 13:03:28;;;;;;;7.05;4.07;;;7.60;62.80;;;;;;5026883;28;20121;-75
2022/12/07 13:06:20;;;;;;;5.80;3.92;;;7.60;62.70;;;;;;5006089;28;20463;-75
2022/12/07 13:09:22;;;;;;;6.90;3.55;;;7.60;62.60;;;;;;5016608;28;20591;-75
2022/12/07 13:12:14;;;;;;;6.25;3.60;;;7.70;62.70;;;;;;5026029;28;20056;-75
2022/12/07 13:14:58;;;;;;;7.50;3.85;;;7.70;62.70;;;;;;5025644;28;20036;-75
2022/12/07 13:17:43;;;;;;;10.15;3.60;;;7.70;62.60;;;;;;5003778;28;20041;-75
2022/12/07 13:20:48;;;;;;;8.48;3.60;;;7.70;62.50;;;;;;5017002;28;20072;-77
2022/12/07 13:23:36;;;;;;;4.63;3.38;;;7.80;62.50;;;;;;5021295;28;20065;-78
2022/12/07 13:26:30;;;;;;;6.70;3.13;;;7.80;62.40;;;;;;5026462;28;20040;-78
2022/12/07 13:29:23;;;;;;;5.60;2.97;;;7.80;62.20;;;;;;5006802;28;20360;-78
2022/12/07 13:32:27;;;;;;;6.80;4.22;;;7.90;62.30;;;;;;5006323;28;20498;-76
2022/12/07 13:35:35;;;;;;;5.65;2.78;;;7.90;62.10;;;;;;5006737;28;20052;-77
2022/12/07 13:38:28;;;;;;;5.03;2.63;;;7.90;62.00;;;;;;5008655;28;20251;-77
2022/12/07 13:41:18;;;;;;;3.60;2.38;;;8.00;62.20;;;;;;5025841;28;20223;-78
2022/12/07 13:44:10;;;;;;;5.32;2.42;;;8.00;62.10;;;;;;5025985;28;20044;-76
2022/12/07 13:47:04;;;;;;;5.10;2.38;;;8.00;61.90;;;;;;5017614;28;20061;-77
2022/12/07 13:49:55;;;;;;;5.07;2.20;;;8.00;61.80;;;;;;5011657;28;20041;-77
2022/12/07 13:52:44;;;;;;;4.97;2.30;;;8.00;61.80;;;;;;5021597;28;20171;-76
2022/12/07 13:55:29;;;;;;;5.75;2.10;;;8.00;61.70;;;;;;5006580;28;20093;-77
2022/12/07 13:58:14;;;;;;;4.82;2.38;;;8.00;61.60;;;;;;4994599;28;20049;-77
2022/12/07 14:00:59;;;;;;;6.95;2.35;;;8.00;61.50;;;;;;5009682;28;20217;-76
2022/12/07 14:03:44;;;;;;;8.98;2.20;;;8.00;61.40;;;;;;5010703;28;20157;-77
2022/12/07 14:06:28;;;;;;;5.90;2.13;;;8.10;61.50;;;;;;4995633;28;20404;-78
2022/12/07 14:09:25;;;;;;;4.47;2.00;;;8.10;61.40;;;;;;5030032;28;20048;-78
2022/12/07 14:12:12;;;;;;;4.18;2.28;;;8.10;61.20;;;;;;5034588;28;20080;-77
2022/12/07 14:14:59;;;;;;;3.38;1.60;;;8.10;61.20;;;;;;5037134;28;20088;-78
2022/12/07 14:17:52;;;;;;;4.60;1.67;;;8.10;61.10;;;;;;5036139;28;20049;-78
2022/12/07 14:20:41;;;;;;;6.10;2.42;;;8.10;61.00;;;;;;5029542;28;20599;-77
2022/12/07 14:23:27;;;;;;;4.70;2.30;;;8.10;61.00;;;;;;5020027;28;20038;-77
2022/12/07 14:26:18;;;;;;;4.40;1.70;;;8.10;60.80;;;;;;5025432;28;20056;-77
2022/12/07 14:29:28;;;;;;;5.68;2.35;;;8.10;60.70;;;;;;5013918;28;20105;-76
2022/12/07 14:32:19;;;;;;;4.40;2.20;;;8.10;60.50;;;;;;5018583;28;20437;-79
2022/12/07 14:35:13;;;;;;;2.35;1.50;;;8.10;60.50;;;;;;5005866;28;20096;-77
2022/12/07 14:37:58;;;;;;;5.07;2.03;;;8.20;60.50;;;;;;5010905;28;20527;-76
2022/12/07 14:40:42;;;;;;;6.88;2.00;;;8.20;60.50;;;;;;5016901;28;20092;-76
2022/12/07 14:43:27;;;;;;;3.65;1.70;;;8.10;60.20;;;;;;5004780;28;20048;-76
2022/12/07 14:46:11;;;;;;;4.85;1.90;;;8.10;60.10;;;;;;4989758;28;20532;-75